Time,TemperatureF,DewpointF,PressureIn,WindDirection,WindDirectionDegrees,WindSpeedMPH,WindSpeedGustMPH,Humidity,HourlyPrecipIn,Conditions,Clouds,dailyrainin,SoftwareType,DateUTC
2013-09-25 00:00:00,42.3,39.9,30.00,NNW,348,0.0,8.0,91,0.00,,,0.00,Wunderground v.1.15,2013-09-25 04:00:00,
2013-09-25 09:45:00,53.2,52.4,29.99,NNW,348,0.0,0.0,97,0.00,,,0.00,Wunderground v.1.15,2013-09-25 13:45:00,
2013-09-25 09:50:00,54.0,53.2,29.99,NNW,348,0.0,0.0,97,0.00,,,0.00,Wunderground v.1.15,2013-09-25 13:50:00,
2013-09-25 09:55:00,54.5,53.4,29.99,NNW,348,0.0,0.0,96,0.00,,,0.00,Wunderground v.1.15,2013-09-25 13:55:00,
2013-09-25 10:00:00,55.4,54.3,29.99,NNW,348,0.0,0.0,96,0.00,,,0.00,Wunderground v.1.15,2013-09-25 14:00:00,
2013-09-25 10:05:00,55.9,54.2,29.99,NNW,348,0.0,0.0,94,0.00,,,0.00,Wunderground v.1.15,2013-09-25 14:05:00,
2013-09-25 10:10:00,57.0,55.3,29.99,NNW,348,0.0,0.0,94,0.00,,,0.00,Wunderground v.1.15,2013-09-25 14:10:00,
2013-09-25 10:15:00,57.7,55.1,29.99,NNW,348,0.0,0.0,91,0.00,,,0.00,Wunderground v.1.15,2013-09-25 14:15:00,
2013-09-25 10:20:00,58.2,54.7,29.98,NNW,348,0.0,0.0,88,0.00,,,0.00,Wunderground v.1.15,2013-09-25 14:20:00,
2013-09-25 10:25:00,58.6,54.4,29.98,NNW,342,0.0,0.0,86,0.00,,,0.00,Wunderground v.1.15,2013-09-25 14:25:00,
2013-09-25 10:35:00,59.3,54.5,29.98,NNW,342,0.0,1.0,84,0.00,,,0.00,Wunderground v.1.15,2013-09-25 14:35:00,
2013-09-25 10:40:00,59.6,54.1,29.98,NNW,340,0.0,1.0,82,0.00,,,0.00,Wunderground v.1.15,2013-09-25 14:40:00,
2013-09-25 10:45:00,60.5,55.3,29.99,NNW,340,0.0,1.0,83,0.00,,,0.00,Wunderground v.1.15,2013-09-25 14:45:00,
2013-09-25 10:50:00,61.0,55.1,29.98,NNW,340,0.0,1.0,81,0.00,,,0.00,Wunderground v.1.15,2013-09-25 14:50:00,
2013-09-25 10:55:00,61.5,55.6,29.99,NNW,340,0.0,1.0,81,0.00,,,0.00,Wunderground v.1.15,2013-09-25 14:55:00,
2013-09-25 11:00:00,61.9,55.3,29.99,NNW,340,0.0,1.0,79,0.00,,,0.00,Wunderground v.1.15,2013-09-25 15:00:00,
2013-09-25 11:05:00,62.3,55.4,29.98,NNW,340,0.0,1.0,78,0.00,,,0.00,Wunderground v.1.15,2013-09-25 15:05:00,
2013-09-25 11:15:00,62.9,55.6,29.98,NNW,338,0.0,1.0,77,0.00,,,0.00,Wunderground v.1.15,2013-09-25 15:15:00,
2013-09-25 11:20:00,63.2,55.9,29.98,NNW,338,0.0,1.0,77,0.00,,,0.00,Wunderground v.1.15,2013-09-25 15:20:00,
2013-09-25 11:25:00,63.4,55.3,29.98,NNW,338,0.0,1.0,75,0.00,,,0.00,Wunderground v.1.15,2013-09-25 15:25:00,
2013-09-25 11:30:00,63.9,55.8,29.99,NNW,334,0.0,1.0,75,0.00,,,0.00,Wunderground v.1.15,2013-09-25 15:30:00,
2013-09-25 11:35:00,64.7,56.6,29.99,NNW,334,0.0,1.0,75,0.00,,,0.00,Wunderground v.1.15,2013-09-25 15:35:00,
2013-09-25 11:40:00,64.3,55.1,29.98,NNW,333,0.0,1.0,72,0.00,,,0.00,Wunderground v.1.15,2013-09-25 15:40:00,
2013-09-25 11:45:00,65.1,55.1,29.98,NNW,336,0.0,1.0,70,0.00,,,0.00,Wunderground v.1.15,2013-09-25 15:45:00,
2013-09-25 11:55:00,66.1,54.0,29.98,NNW,341,0.0,1.0,65,0.00,,,0.00,Wunderground v.1.15,2013-09-25 15:55:00,
2013-09-25 12:00:00,66.1,54.0,29.98,NNW,341,1.0,1.0,65,0.00,,,0.00,Wunderground v.1.15,2013-09-25 16:00:00,
2013-09-25 12:05:00,66.3,53.3,29.98,NNW,335,0.0,1.0,63,0.00,,,0.00,Wunderground v.1.15,2013-09-25 16:05:00,
2013-09-25 12:10:00,66.6,53.2,29.98,NNW,343,1.0,1.0,62,0.00,,,0.00,Wunderground v.1.15,2013-09-25 16:10:00,
2013-09-25 12:15:00,66.9,53.9,29.98,NW,321,1.0,1.0,63,0.00,,,0.00,Wunderground v.1.15,2013-09-25 16:15:00,
2013-09-25 12:20:00,66.7,54.6,29.98,NW,321,1.0,1.0,65,0.00,,,0.00,Wunderground v.1.15,2013-09-25 16:20:00,
2013-09-25 12:25:00,67.0,52.2,29.98,NW,321,0.0,1.0,59,0.00,,,0.00,Wunderground v.1.15,2013-09-25 16:25:00,
2013-09-25 12:35:00,66.2,53.2,29.98,NW,317,1.0,1.0,63,0.00,,,0.00,Wunderground v.1.15,2013-09-25 16:35:00,
2013-09-25 12:40:00,66.1,52.3,29.98,North,5,1.0,1.0,61,0.00,,,0.00,Wunderground v.1.15,2013-09-25 16:40:00,
2013-09-25 12:45:00,66.0,52.6,29.97,North,5,1.0,1.0,62,0.00,,,0.00,Wunderground v.1.15,2013-09-25 16:45:00,
2013-09-25 12:50:00,66.2,53.2,29.97,North,5,0.0,1.0,63,0.00,,,0.00,Wunderground v.1.15,2013-09-25 16:50:00,
2013-09-25 12:55:00,66.6,51.4,29.97,North,5,0.0,1.0,58,0.00,,,0.00,Wunderground v.1.15,2013-09-25 16:55:00,
2013-09-25 13:00:00,67.0,53.1,29.97,North,9,0.0,1.0,61,0.00,,,0.00,Wunderground v.1.15,2013-09-25 17:00:00,
2013-09-25 13:05:00,67.1,54.5,29.97,North,9,0.0,1.0,64,0.00,,,0.00,Wunderground v.1.15,2013-09-25 17:05:00,
2013-09-25 13:10:00,67.4,54.8,29.97,NW,319,1.0,3.0,64,0.00,,,0.00,Wunderground v.1.15,2013-09-25 17:10:00,
2013-09-25 13:20:00,67.5,52.7,29.96,North,360,1.0,2.0,59,0.00,,,0.00,Wunderground v.1.15,2013-09-25 17:20:00,
2013-09-25 13:25:00,67.6,54.1,29.96,North,360,2.0,2.0,62,0.00,,,0.00,Wunderground v.1.15,2013-09-25 17:25:00,
2013-09-25 13:30:00,67.9,52.6,29.96,North,5,2.0,2.0,58,0.00,,,0.00,Wunderground v.1.15,2013-09-25 17:30:00,
2013-09-25 13:35:00,68.0,54.0,29.96,North,360,2.0,2.0,61,0.00,,,0.00,Wunderground v.1.15,2013-09-25 17:35:00,
2013-09-25 13:40:00,67.8,52.0,29.96,WNW,303,1.0,1.0,57,0.00,,,0.00,Wunderground v.1.15,2013-09-25 17:40:00,
2013-09-25 13:45:00,67.7,50.9,29.95,North,355,2.0,4.0,55,0.00,,,0.00,Wunderground v.1.15,2013-09-25 17:45:00,
2013-09-25 13:50:00,67.8,51.0,29.95,NNE,16,2.0,2.0,55,0.00,,,0.00,Wunderground v.1.15,2013-09-25 17:50:00,
2013-09-25 14:00:00,68.0,54.0,29.95,NNE,15,1.0,4.0,61,0.00,,,0.00,Wunderground v.1.15,2013-09-25 18:00:00,
2013-09-25 14:05:00,67.8,53.9,29.95,North,355,1.0,4.0,61,0.00,,,0.00,Wunderground v.1.15,2013-09-25 18:05:00,
2013-09-25 14:10:00,68.1,53.7,29.94,North,5,2.0,2.0,60,0.00,,,0.00,Wunderground v.1.15,2013-09-25 18:10:00,
2013-09-25 14:15:00,68.5,53.6,29.94,North,350,1.0,3.0,59,0.00,,,0.00,Wunderground v.1.15,2013-09-25 18:15:00,
2013-09-25 14:20:00,68.0,51.7,29.94,North,355,2.0,2.0,56,0.00,,,0.00,Wunderground v.1.15,2013-09-25 18:20:00,
2013-09-25 14:25:00,68.2,52.4,29.94,North,355,2.0,3.0,57,0.00,,,0.00,Wunderground v.1.15,2013-09-25 18:25:00,
2013-09-25 14:30:00,68.6,52.8,29.94,NW,321,1.0,1.0,57,0.00,,,0.00,Wunderground v.1.15,2013-09-25 18:30:00,
2013-09-25 14:40:00,67.9,53.5,29.94,North,5,2.0,3.0,60,0.00,,,0.00,Wunderground v.1.15,2013-09-25 18:40:00,
2013-09-25 14:45:00,68.2,52.4,29.94,NNW,327,1.0,3.0,57,0.00,,,0.00,Wunderground v.1.15,2013-09-25 18:45:00,
2013-09-25 14:50:00,68.4,53.5,29.94,NNW,337,1.0,3.0,59,0.00,,,0.00,Wunderground v.1.15,2013-09-25 18:50:00,
2013-09-25 14:55:00,68.2,52.4,29.94,North,360,1.0,3.0,57,0.00,,,0.00,Wunderground v.1.15,2013-09-25 18:55:00,
2013-09-25 15:00:00,68.7,52.8,29.93,NNE,24,1.0,1.0,57,0.00,,,0.00,Wunderground v.1.15,2013-09-25 19:00:00,
2013-09-25 15:05:00,68.5,52.2,29.93,NNW,344,1.0,1.0,56,0.00,,,0.00,Wunderground v.1.15,2013-09-25 19:05:00,
2013-09-25 15:10:00,68.4,51.1,29.94,North,5,2.0,4.0,54,0.00,,,0.00,Wunderground v.1.15,2013-09-25 19:10:00,
2013-09-25 15:20:00,68.3,50.5,29.93,NNW,331,1.0,4.0,53,0.00,,,0.00,Wunderground v.1.15,2013-09-25 19:20:00,
2013-09-25 15:25:00,67.9,50.6,29.93,NNW,339,2.0,4.0,54,0.00,,,0.00,Wunderground v.1.15,2013-09-25 19:25:00,
2013-09-25 15:30:00,67.9,51.6,29.93,North,360,2.0,2.0,56,0.00,,,0.00,Wunderground v.1.15,2013-09-25 19:30:00,
2013-09-25 15:35:00,68.0,50.7,29.93,NNE,17,1.0,2.0,54,0.00,,,0.00,Wunderground v.1.15,2013-09-25 19:35:00,
2013-09-25 15:40:00,67.9,50.1,29.93,North,355,1.0,4.0,53,0.00,,,0.00,Wunderground v.1.15,2013-09-25 19:40:00,
2013-09-25 15:45:00,67.5,49.8,29.93,NNW,336,2.0,4.0,53,0.00,,,0.00,Wunderground v.1.15,2013-09-25 19:45:00,
2013-09-25 15:50:00,67.3,50.6,29.93,NNW,345,2.0,4.0,55,0.00,,,0.00,Wunderground v.1.15,2013-09-25 19:50:00,
2013-09-25 16:00:00,67.5,51.2,29.93,NNW,346,1.0,2.0,56,0.00,,,0.00,Wunderground v.1.15,2013-09-25 20:00:00,
2013-09-25 16:05:00,67.3,49.6,29.93,NNE,33,1.0,2.0,53,0.00,,,0.00,Wunderground v.1.15,2013-09-25 20:05:00,
2013-09-25 16:10:00,66.8,48.6,29.93,NNW,346,1.0,5.0,52,0.00,,,0.00,Wunderground v.1.15,2013-09-25 20:10:00,
2013-09-25 16:15:00,66.9,50.2,29.93,North,350,2.0,5.0,55,0.00,,,0.00,Wunderground v.1.15,2013-09-25 20:15:00,
2013-09-25 16:25:00,66.5,48.8,29.92,NNW,339,1.0,3.0,53,0.00,,,0.00,Wunderground v.1.15,2013-09-25 20:25:00,
2013-09-25 16:30:00,66.2,48.0,29.93,NNW,347,1.0,1.0,52,0.00,,,0.00,Wunderground v.1.15,2013-09-25 20:30:00,
2013-09-25 16:35:00,65.9,47.8,29.92,NNW,345,2.0,2.0,52,0.00,,,0.00,Wunderground v.1.15,2013-09-25 20:35:00,
2013-09-25 16:40:00,65.8,47.7,29.92,North,355,2.0,2.0,52,0.00,,,0.00,Wunderground v.1.15,2013-09-25 20:40:00,
2013-09-25 16:45:00,65.6,47.5,29.92,North,350,1.0,2.0,52,0.00,,,0.00,Wunderground v.1.15,2013-09-25 20:45:00,
2013-09-25 16:50:00,65.6,48.0,29.92,NNW,340,2.0,2.0,53,0.00,,,0.00,Wunderground v.1.15,2013-09-25 20:50:00,
2013-09-25 16:55:00,65.6,48.0,29.93,NNW,347,2.0,2.0,53,0.00,,,0.00,Wunderground v.1.15,2013-09-25 20:55:00,
2013-09-25 17:05:00,65.3,47.7,29.93,NNW,338,2.0,3.0,53,0.00,,,0.00,Wunderground v.1.15,2013-09-25 21:05:00,
2013-09-25 17:10:00,65.1,47.0,29.93,NNW,344,1.0,3.0,52,0.00,,,0.00,Wunderground v.1.15,2013-09-25 21:10:00,
2013-09-25 17:15:00,65.0,46.9,29.93,NNW,342,1.0,3.0,52,0.00,,,0.00,Wunderground v.1.15,2013-09-25 21:15:00,
2013-09-25 17:25:00,64.3,47.3,29.93,NNW,346,1.0,3.0,54,0.00,,,0.00,Wunderground v.1.15,2013-09-25 21:25:00,
2013-09-25 17:30:00,63.9,47.4,29.93,NNW,347,1.0,3.0,55,0.00,,,0.00,Wunderground v.1.15,2013-09-25 21:30:00,
2013-09-25 17:35:00,63.5,47.0,29.93,NNW,348,1.0,1.0,55,0.00,,,0.00,Wunderground v.1.15,2013-09-25 21:35:00,
2013-09-25 17:45:00,62.9,47.0,29.93,NNW,348,1.0,1.0,56,0.00,,,0.00,Wunderground v.1.15,2013-09-25 21:45:00,
2013-09-25 17:50:00,62.5,47.1,29.93,NNW,348,1.0,1.0,57,0.00,,,0.00,Wunderground v.1.15,2013-09-25 21:50:00,
2013-09-25 17:55:00,62.4,47.9,29.93,NNW,348,0.0,1.0,59,0.00,,,0.00,Wunderground v.1.15,2013-09-25 21:55:00,
2013-09-25 18:00:00,62.2,48.1,29.93,NNW,348,0.0,1.0,60,0.00,,,0.00,Wunderground v.1.15,2013-09-25 22:00:00,
2013-09-25 18:05:00,62.1,48.0,29.93,NNW,348,0.0,1.0,60,0.00,,,0.00,Wunderground v.1.15,2013-09-25 22:05:00,
2013-09-25 18:10:00,62.1,48.5,29.93,NNW,348,0.0,1.0,61,0.00,,,0.00,Wunderground v.1.15,2013-09-25 22:10:00,
2013-09-25 18:15:00,62.1,48.5,29.93,NNW,348,0.0,1.0,61,0.00,,,0.00,Wunderground v.1.15,2013-09-25 22:15:00,
2013-09-25 18:25:00,61.6,49.3,29.93,NNW,348,0.0,1.0,64,0.00,,,0.00,Wunderground v.1.15,2013-09-25 22:25:00,
2013-09-25 18:30:00,61.2,49.3,29.93,NNW,348,0.0,1.0,65,0.00,,,0.00,Wunderground v.1.15,2013-09-25 22:30:00,
2013-09-25 18:35:00,60.7,49.3,29.93,NNW,348,0.0,1.0,66,0.00,,,0.00,Wunderground v.1.15,2013-09-25 22:35:00,
2013-09-25 18:40:00,60.0,49.0,29.93,NNW,348,0.0,1.0,67,0.00,,,0.00,Wunderground v.1.15,2013-09-25 22:40:00,
2013-09-25 18:45:00,59.2,48.6,29.93,NNW,348,0.0,1.0,68,0.00,,,0.00,Wunderground v.1.15,2013-09-25 22:45:00,
2013-09-25 18:50:00,58.5,48.4,29.93,NNW,348,0.0,1.0,69,0.00,,,0.00,Wunderground v.1.15,2013-09-25 22:50:00,
2013-09-25 18:55:00,57.7,48.0,29.93,NNW,348,0.0,1.0,70,0.00,,,0.00,Wunderground v.1.15,2013-09-25 22:55:00,
2013-09-25 19:05:00,56.2,47.3,29.93,NNW,348,0.0,1.0,72,0.00,,,0.00,Wunderground v.1.15,2013-09-25 23:05:00,
2013-09-25 19:10:00,55.4,47.2,29.93,NNW,348,0.0,1.0,74,0.00,,,0.00,Wunderground v.1.15,2013-09-25 23:10:00,
2013-09-25 19:15:00,54.7,46.9,29.94,NNW,348,0.0,1.0,75,0.00,,,0.00,Wunderground v.1.15,2013-09-25 23:15:00,
2013-09-25 19:20:00,54.2,46.4,29.93,NNW,348,0.0,1.0,75,0.00,,,0.00,Wunderground v.1.15,2013-09-25 23:20:00,
2013-09-25 19:25:00,53.7,46.7,29.94,NNW,348,0.0,1.0,77,0.00,,,0.00,Wunderground v.1.15,2013-09-25 23:25:00,
2013-09-25 19:30:00,53.2,46.5,29.94,NNW,348,0.0,1.0,78,0.00,,,0.00,Wunderground v.1.15,2013-09-25 23:30:00,
2013-09-25 19:35:00,52.7,46.0,29.94,NNW,348,0.0,1.0,78,0.00,,,0.00,Wunderground v.1.15,2013-09-25 23:35:00,
2013-09-25 19:40:00,52.3,46.0,29.94,NNW,348,0.0,1.0,79,0.00,,,0.00,Wunderground v.1.15,2013-09-25 23:40:00,
2013-09-25 19:50:00,51.7,46.1,29.94,NNW,348,0.0,1.0,81,0.00,,,0.00,Wunderground v.1.15,2013-09-25 23:50:00,
2013-09-25 19:55:00,51.3,45.7,29.94,NNW,348,0.0,1.0,81,0.00,,,0.00,Wunderground v.1.15,2013-09-25 23:55:00,
2013-09-25 20:00:00,50.9,45.6,29.94,NNW,348,0.0,1.0,82,0.00,,,0.00,Wunderground v.1.15,2013-09-26 00:00:00,
2013-09-25 20:05:00,50.6,45.3,29.94,NNW,348,0.0,1.0,82,0.00,,,0.00,Wunderground v.1.15,2013-09-26 00:05:00,
2013-09-25 20:10:00,50.4,45.4,29.94,NNW,348,0.0,1.0,83,0.00,,,0.00,Wunderground v.1.15,2013-09-26 00:10:00,
2013-09-25 20:15:00,50.1,45.1,29.95,NNW,348,0.0,1.0,83,0.00,,,0.00,Wunderground v.1.15,2013-09-26 00:15:00,
2013-09-25 20:20:00,49.8,44.8,29.95,NNW,348,0.0,1.0,83,0.00,,,0.00,Wunderground v.1.15,2013-09-26 00:20:00,
2013-09-25 20:30:00,49.2,44.6,29.95,NNW,348,0.0,1.0,84,0.00,,,0.00,Wunderground v.1.15,2013-09-26 00:30:00,
2013-09-25 20:35:00,48.9,44.3,29.95,NNW,348,0.0,1.0,84,0.00,,,0.00,Wunderground v.1.15,2013-09-26 00:35:00,
2013-09-25 20:40:00,48.6,44.0,29.95,NNW,348,0.0,1.0,84,0.00,,,0.00,Wunderground v.1.15,2013-09-26 00:40:00,
2013-09-25 20:45:00,48.4,44.1,29.95,NNW,348,0.0,1.0,85,0.00,,,0.00,Wunderground v.1.15,2013-09-26 00:45:00,
2013-09-25 20:55:00,47.9,43.6,29.95,NNW,348,0.0,1.0,85,0.00,,,0.00,Wunderground v.1.15,2013-09-26 00:55:00,
2013-09-25 21:00:00,47.7,43.4,29.95,NNW,348,0.0,1.0,85,0.00,,,0.00,Wunderground v.1.15,2013-09-26 01:00:00,
2013-09-25 21:05:00,47.5,43.2,29.96,NNW,348,0.0,1.0,85,0.00,,,0.00,Wunderground v.1.15,2013-09-26 01:05:00,
2013-09-25 21:10:00,47.3,43.3,29.96,NNW,348,0.0,1.0,86,0.00,,,0.00,Wunderground v.1.15,2013-09-26 01:10:00,
2013-09-25 21:15:00,47.1,43.1,29.96,NNW,348,0.0,1.0,86,0.00,,,0.00,Wunderground v.1.15,2013-09-26 01:15:00,
2013-09-25 21:25:00,46.7,42.7,29.96,NNW,348,0.0,1.0,86,0.00,,,0.00,Wunderground v.1.15,2013-09-26 01:25:00,
2013-09-25 21:30:00,46.5,42.5,29.96,NNW,348,0.0,1.0,86,0.00,,,0.00,Wunderground v.1.15,2013-09-26 01:30:00,
2013-09-25 21:35:00,46.4,42.4,29.96,NNW,348,0.0,1.0,86,0.00,,,0.00,Wunderground v.1.15,2013-09-26 01:35:00,
2013-09-25 21:40:00,46.4,42.7,29.96,NNW,348,0.0,1.0,87,0.00,,,0.00,Wunderground v.1.15,2013-09-26 01:40:00,
2013-09-25 21:45:00,46.5,43.1,29.96,NNW,348,0.0,1.0,88,0.00,,,0.00,Wunderground v.1.15,2013-09-26 01:45:00,
2013-09-25 21:50:00,46.5,42.8,29.96,NNW,348,0.0,1.0,87,0.00,,,0.00,Wunderground v.1.15,2013-09-26 01:50:00,
2013-09-25 21:55:00,46.3,42.9,29.96,NNW,348,0.0,1.0,88,0.00,,,0.00,Wunderground v.1.15,2013-09-26 01:55:00,
2013-09-25 22:00:00,46.3,42.9,29.96,NNW,348,0.0,1.0,88,0.00,,,0.00,Wunderground v.1.15,2013-09-26 02:00:00,
2013-09-25 22:10:00,46.3,43.2,29.96,NNW,348,0.0,1.0,89,0.00,,,0.00,Wunderground v.1.15,2013-09-26 02:10:00,
2013-09-25 22:15:00,46.1,43.0,29.96,NNW,348,0.0,1.0,89,0.00,,,0.00,Wunderground v.1.15,2013-09-26 02:15:00,
2013-09-25 22:25:00,45.8,42.7,29.97,NNW,348,0.0,1.0,89,0.00,,,0.00,Wunderground v.1.15,2013-09-26 02:25:00,
2013-09-25 22:30:00,45.6,42.5,29.97,NNW,348,0.0,1.0,89,0.00,,,0.00,Wunderground v.1.15,2013-09-26 02:30:00,
2013-09-25 22:35:00,45.4,42.3,29.97,NNW,348,0.0,1.0,89,0.00,,,0.00,Wunderground v.1.15,2013-09-26 02:35:00,
2013-09-25 22:40:00,45.2,42.2,29.97,NNW,348,0.0,1.0,89,0.00,,,0.00,Wunderground v.1.15,2013-09-26 02:40:00,
2013-09-25 22:45:00,45.3,42.5,29.97,NNW,348,0.0,1.0,90,0.00,,,0.00,Wunderground v.1.15,2013-09-26 02:45:00,
2013-09-25 22:50:00,45.4,42.6,29.97,NNW,348,0.0,1.0,90,0.00,,,0.00,Wunderground v.1.15,2013-09-26 02:50:00,
2013-09-25 23:00:00,45.1,42.3,29.97,NNW,348,0.0,1.0,90,0.00,,,0.00,Wunderground v.1.15,2013-09-26 03:00:00,
2013-09-25 23:05:00,45.1,42.3,29.97,NNW,348,0.0,1.0,90,0.00,,,0.00,Wunderground v.1.15,2013-09-26 03:05:00,
2013-09-25 23:10:00,45.1,42.3,29.97,NNW,348,0.0,1.0,90,0.00,,,0.00,Wunderground v.1.15,2013-09-26 03:10:00,
2013-09-25 23:15:00,45.0,42.2,29.97,NNW,348,0.0,1.0,90,0.00,,,0.00,Wunderground v.1.15,2013-09-26 03:15:00,
2013-09-25 23:20:00,44.9,42.1,29.97,NNW,348,0.0,1.0,90,0.00,,,0.00,Wunderground v.1.15,2013-09-26 03:20:00,
2013-09-25 23:25:00,44.6,41.8,29.97,NNW,348,0.0,1.0,90,0.00,,,0.00,Wunderground v.1.15,2013-09-26 03:25:00,
2013-09-25 23:30:00,44.4,41.7,29.97,NNW,348,0.0,1.0,90,0.00,,,0.00,Wunderground v.1.15,2013-09-26 03:30:00,
2013-09-25 23:40:00,44.4,41.9,29.97,NNW,348,0.0,1.0,91,0.00,,,0.00,Wunderground v.1.15,2013-09-26 03:40:00,
2013-09-25 23:45:00,44.4,41.9,29.97,NNW,348,0.0,1.0,91,0.00,,,0.00,Wunderground v.1.15,2013-09-26 03:45:00,
2013-09-25 23:50:00,44.3,41.8,29.97,NNW,348,0.0,1.0,91,0.00,,,0.00,Wunderground v.1.15,2013-09-26 03:50:00,
2013-09-25 23:55:00,44.1,41.6,29.97,NNW,348,0.0,1.0,91,0.00,,,0.00,Wunderground v.1.15,2013-09-26 03:55:00,